createdAt,value
2023-08-08T00:01:15.900Z,98945.31
2023-08-08T00:03:46.807Z,98942.02
2023-08-08T00:06:17.584Z,98937.47
2023-08-08T00:08:48.314Z,98938.99
2023-08-08T00:11:19.133Z,98940.79
2023-08-08T00:13:49.861Z,98936.20
2023-08-08T00:16:21.103Z,98932.38
2023-08-08T00:18:54.637Z,98933.19
2023-08-08T00:21:25.342Z,98934.37
2023-08-08T00:23:56.316Z,98936.34
2023-08-08T00:26:27.039Z,98936.34
2023-08-08T00:28:57.929Z,98931.92
2023-08-08T00:31:28.632Z,98937.77
2023-08-08T00:33:59.399Z,98936.58
2023-08-08T00:36:30.090Z,98937.48
2023-08-08T00:39:00.947Z,98929.60
2023-08-08T00:41:31.933Z,98930.98
2023-08-08T00:44:02.772Z,98934.58
2023-08-08T00:46:33.769Z,98932.95
2023-08-08T00:49:04.679Z,98933.49
2023-08-08T00:51:36.428Z,98930.80
2023-08-08T00:54:07.458Z,98928.63
2023-08-08T00:56:38.695Z,98930.96
2023-08-08T00:59:13.533Z,98929.80
2023-08-08T01:01:44.800Z,98928.23
2023-08-08T01:04:15.785Z,98927.64
2023-08-08T01:06:56.727Z,98926.34
2023-08-08T01:09:32.398Z,98935.35
2023-08-08T01:12:04.933Z,98934.23
2023-08-08T01:14:36.907Z,98937.88
2023-08-08T01:17:08.738Z,98937.79
2023-08-08T01:19:40.172Z,98944.65
2023-08-08T01:22:16.866Z,98944.42
2023-08-08T01:24:47.715Z,98941.75
2023-08-08T01:27:19.382Z,98940.91
2023-08-08T01:29:50.050Z,98937.15
2023-08-08T01:32:20.868Z,98936.64
2023-08-08T01:34:51.888Z,98939.27
2023-08-08T01:37:30.336Z,98940.93
2023-08-08T01:40:02.800Z,98943.30
2023-08-08T01:42:34.229Z,98939.41
2023-08-08T01:45:06.212Z,98938.05
2023-08-08T01:47:37.625Z,98938.27
2023-08-08T01:50:10.343Z,98936.95
2023-08-08T01:52:41.264Z,98939.41
2023-08-08T01:55:13.750Z,98939.64
2023-08-08T01:57:44.956Z,98936.95
2023-08-08T02:00:16.402Z,98942.83
2023-08-08T02:02:47.723Z,98940.60
2023-08-08T02:05:18.661Z,98939.02
2023-08-08T02:07:49.819Z,98942.64
2023-08-08T02:10:20.788Z,98946.98
2023-08-08T02:12:51.420Z,98942.19
2023-08-08T02:15:22.125Z,98943.62
2023-08-08T02:17:53.927Z,98940.77
2023-08-08T02:20:24.620Z,98938.70
2023-08-08T02:22:55.629Z,98941.98
2023-08-08T02:25:26.379Z,98942.33
2023-08-08T02:27:57.836Z,98943.95
2023-08-08T02:30:28.498Z,98941.19
2023-08-08T02:32:59.495Z,98939.06
2023-08-08T02:35:30.958Z,98941.30
2023-08-08T02:38:01.708Z,98938.02
2023-08-08T02:40:33.604Z,98936.45
2023-08-08T02:43:04.738Z,98935.36
2023-08-08T02:45:35.499Z,98933.67
2023-08-08T02:48:07.633Z,98936.96
2023-08-08T02:50:38.434Z,98936.20
2023-08-08T02:53:09.546Z,98936.17
2023-08-08T02:55:41.328Z,98940.29
2023-08-08T02:58:12.032Z,98941.55
2023-08-08T03:00:42.857Z,98943.48
2023-08-08T03:03:14.368Z,98941.58
2023-08-08T03:05:46.199Z,98941.91
2023-08-08T03:08:17.043Z,98942.75
2023-08-08T03:10:47.923Z,98942.58
2023-08-08T03:13:21.012Z,98942.45
2023-08-08T03:15:52.264Z,98938.96
2023-08-08T03:18:24.158Z,98939.48
2023-08-08T03:20:55.258Z,98937.83
2023-08-08T03:23:25.987Z,98935.60
2023-08-08T03:25:57.622Z,98931.71
2023-08-08T03:28:28.412Z,98928.92
2023-08-08T03:30:59.095Z,98928.31
2023-08-08T03:33:30.243Z,98933.21
2023-08-08T03:36:01.053Z,98936.11
2023-08-08T03:38:32.640Z,98939.16
2023-08-08T03:41:04.082Z,98940.73
2023-08-08T03:43:35.126Z,98942.50
2023-08-08T03:46:05.833Z,98942.23
2023-08-08T03:48:36.830Z,98947.95
2023-08-08T03:51:08.067Z,98951.45
2023-08-08T03:53:38.786Z,98951.17
2023-08-08T03:56:09.842Z,98953.23
2023-08-08T03:58:41.372Z,98953.97
2023-08-08T04:01:12.315Z,98955.63
2023-08-08T04:03:43.106Z,98952.21
2023-08-08T04:06:14.124Z,98952.84
2023-08-08T04:08:44.976Z,98952.05
2023-08-08T04:11:15.685Z,98956.23
2023-08-08T04:13:46.370Z,98955.90
2023-08-08T04:16:17.184Z,98965.09
2023-08-08T04:18:48.128Z,98971.91
2023-08-08T04:21:18.848Z,98980.07
2023-08-08T04:23:49.606Z,98976.07
2023-08-08T04:26:20.611Z,98972.19
2023-08-08T04:28:51.580Z,98985.34
2023-08-08T04:31:25.708Z,98985.98
2023-08-08T04:34:02.313Z,98988.05
2023-08-08T04:36:33.500Z,98993.24
2023-08-08T04:39:04.598Z,98985.46
2023-08-08T04:41:35.252Z,98986.23
2023-08-08T04:44:06.302Z,98984.00
2023-08-08T04:46:37.472Z,98982.44
2023-08-08T04:49:08.651Z,98988.35
2023-08-08T04:51:40.574Z,98989.64
2023-08-08T04:54:11.266Z,98996.66
2023-08-08T04:56:42.016Z,99006.79
2023-08-08T04:59:13.101Z,99007.55
2023-08-08T05:01:43.801Z,99008.05
2023-08-08T05:04:14.757Z,99013.13
2023-08-08T05:06:45.531Z,99011.87
2023-08-08T05:09:17.010Z,99009.70
2023-08-08T05:11:48.040Z,99017.14
2023-08-08T05:14:18.902Z,99019.55
2023-08-08T05:16:49.629Z,99021.81
2023-08-08T05:19:20.489Z,99023.64
2023-08-08T05:21:52.674Z,99022.83
2023-08-08T05:24:23.961Z,99019.80
2023-08-08T05:26:54.907Z,99014.66
2023-08-08T05:29:25.704Z,99016.55
2023-08-08T05:31:56.505Z,99019.20
2023-08-08T05:34:27.446Z,99016.05
2023-08-08T05:37:14.510Z,99018.48
2023-08-08T05:39:48.347Z,99019.31
2023-08-08T05:42:19.228Z,99016.45
2023-08-08T05:44:50.157Z,99021.14
2023-08-08T05:47:20.872Z,99023.75
2023-08-08T05:49:51.952Z,99019.85
2023-08-08T05:52:23.136Z,99026.73
2023-08-08T05:54:53.857Z,99020.70
2023-08-08T05:57:24.667Z,99021.20
2023-08-08T05:59:55.622Z,99023.14
2023-08-08T06:02:26.552Z,99025.23
2023-08-08T06:04:57.288Z,99029.31
2023-08-08T06:07:28.259Z,99031.84
2023-08-08T06:09:59.084Z,99025.67
2023-08-08T06:12:30.112Z,99032.31
2023-08-08T06:15:00.812Z,99026.60
2023-08-08T06:17:32.270Z,99024.97
2023-08-08T06:20:03.432Z,99024.96
2023-08-08T06:22:34.391Z,99021.94
2023-08-08T06:25:05.946Z,99025.96
2023-08-08T06:27:36.704Z,99026.33
2023-08-08T06:30:10.606Z,99023.48
2023-08-08T06:32:41.618Z,99023.86
2023-08-08T06:35:13.601Z,99019.77
2023-08-08T06:37:44.735Z,99016.09
2023-08-08T06:40:16.761Z,99011.70
2023-08-08T06:42:47.584Z,99014.99
2023-08-08T06:45:18.566Z,99009.91
2023-08-08T06:47:50.132Z,99010.55
2023-08-08T06:50:21.494Z,99009.42
2023-08-08T06:52:52.376Z,99005.75
2023-08-08T06:55:23.316Z,99011.70
2023-08-08T06:57:54.436Z,99013.38
2023-08-08T07:00:25.594Z,99014.46
2023-08-08T07:02:56.452Z,99017.36
2023-08-08T07:05:27.860Z,99017.18
2023-08-08T07:07:58.609Z,99018.58
2023-08-08T07:10:30.848Z,99015.09
2023-08-08T07:13:01.662Z,99014.27
2023-08-08T07:15:32.927Z,99019.80
2023-08-08T07:18:03.912Z,99021.30
2023-08-08T07:20:34.719Z,99023.63
2023-08-08T07:23:06.028Z,99017.80
2023-08-08T07:25:36.902Z,99020.02
2023-08-08T07:28:08.429Z,99021.91
2023-08-08T07:30:39.368Z,99021.14
2023-08-08T07:33:10.912Z,99017.65
2023-08-08T07:35:41.874Z,99018.41
2023-08-08T07:38:12.714Z,99023.35
2023-08-08T07:40:43.457Z,99020.20
2023-08-08T07:43:14.508Z,99014.56
2023-08-08T07:45:45.451Z,99021.27
2023-08-08T07:48:16.888Z,99019.63
2023-08-08T07:50:47.557Z,99018.30
2023-08-08T07:53:18.450Z,99020.16
2023-08-08T07:55:49.222Z,99022.80
2023-08-08T07:58:20.767Z,99025.08
2023-08-08T08:00:53.279Z,99021.07
2023-08-08T08:03:24.386Z,99013.06
2023-08-08T08:05:55.325Z,99015.34
2023-08-08T08:08:26.314Z,99017.60
2023-08-08T08:10:57.017Z,99015.94
2023-08-08T08:13:27.736Z,99011.70
2023-08-08T08:15:58.600Z,99010.92
2023-08-08T08:18:30.145Z,99017.52
2023-08-08T08:21:01.178Z,99016.48
2023-08-08T08:23:33.047Z,99008.18
2023-08-08T08:26:04.016Z,99006.38
2023-08-08T08:28:34.850Z,99004.46
2023-08-08T08:31:10.349Z,98995.07
2023-08-08T08:33:41.425Z,98993.31
2023-08-08T08:36:14.295Z,98992.27
2023-08-08T08:38:45.662Z,98985.23
2023-08-08T08:41:19.942Z,98989.52
2023-08-08T08:43:52.180Z,98993.00
2023-08-08T08:46:24.409Z,98995.96
2023-08-08T08:48:57.594Z,98995.16
2023-08-08T08:51:28.669Z,98993.52
2023-08-08T08:54:01.154Z,98992.55
2023-08-08T08:56:33.963Z,98994.14
2023-08-08T08:59:06.543Z,98995.30
2023-08-08T09:01:37.749Z,98995.34
2023-08-08T09:04:10.317Z,98992.11
2023-08-08T09:06:41.629Z,98995.02
2023-08-08T09:09:16.962Z,98997.36
2023-08-08T09:11:50.256Z,98993.88
2023-08-08T09:14:22.981Z,98992.52
2023-08-08T09:16:55.757Z,98993.19
2023-08-08T09:19:27.410Z,98996.04
2023-08-08T09:21:58.761Z,98994.45
2023-08-08T09:24:29.851Z,98994.03
2023-08-08T09:27:02.119Z,98989.52
2023-08-08T09:29:33.161Z,98987.42
2023-08-08T09:32:07.215Z,98987.95
2023-08-08T09:34:38.621Z,98987.29
2023-08-08T09:37:11.579Z,98983.97
2023-08-08T09:39:42.718Z,98990.16
2023-08-08T09:42:13.555Z,98986.35
2023-08-08T09:44:46.532Z,98982.57
2023-08-08T09:47:18.821Z,98983.14
2023-08-08T09:49:50.682Z,98979.27
2023-08-08T09:52:22.983Z,98973.08
2023-08-08T09:54:54.832Z,98975.59
2023-08-08T09:57:27.270Z,98973.70
2023-08-08T09:59:59.812Z,98969.45
2023-08-08T10:02:32.402Z,98967.70
2023-08-08T10:05:03.554Z,98969.82
2023-08-08T10:07:34.597Z,98968.60
2023-08-08T10:10:05.912Z,98967.57
2023-08-08T10:12:38.462Z,98966.67
2023-08-08T10:15:12.473Z,98967.63
2023-08-08T10:17:44.016Z,98965.51
2023-08-08T10:20:18.757Z,98958.40
2023-08-08T10:22:52.555Z,98958.00
2023-08-08T10:25:24.832Z,98954.21
2023-08-08T10:28:24.060Z,98943.24
2023-08-08T10:30:59.659Z,98947.36
2023-08-08T10:33:29.901Z,98941.13
2023-08-08T10:36:08.087Z,98939.89
2023-08-08T10:38:47.713Z,98932.79
2023-08-08T10:41:21.423Z,98929.52
2023-08-08T10:43:52.853Z,98922.20
2023-08-08T10:46:33.927Z,98931.73
2023-08-08T10:49:07.561Z,98920.50
2023-08-08T10:51:45.199Z,98919.94
2023-08-08T10:54:18.653Z,98921.43
2023-08-08T10:56:54.355Z,98915.52
2023-08-08T10:59:27.924Z,98914.48
2023-08-08T11:01:58.920Z,98909.64
2023-08-08T11:04:31.253Z,98910.04
2023-08-08T11:07:02.242Z,98912.07
2023-08-08T11:09:33.106Z,98915.95
2023-08-08T11:12:04.214Z,98934.70
2023-08-08T11:14:35.548Z,98948.34
2023-08-08T11:17:07.006Z,98960.49
2023-08-08T11:19:44.260Z,98964.59
2023-08-08T11:22:15.515Z,98969.06
2023-08-08T11:24:46.645Z,98962.09
2023-08-08T11:27:42.653Z,98964.48
2023-08-08T11:30:11.219Z,98953.72
2023-08-08T11:32:42.815Z,98944.06
2023-08-08T11:35:14.384Z,98939.02
2023-08-08T11:37:45.877Z,98934.89
2023-08-08T11:40:18.174Z,98924.10
2023-08-08T11:42:51.669Z,98925.89
2023-08-08T11:45:23.495Z,98926.02
2023-08-08T11:47:55.233Z,98925.04
2023-08-08T11:50:28.683Z,98926.92
2023-08-08T11:52:59.870Z,98922.88
2023-08-08T11:58:06.846Z,98915.39
2023-08-08T12:00:38.979Z,98916.04
2023-08-08T12:03:10.761Z,98910.73
2023-08-08T12:05:41.943Z,98916.77
2023-08-08T12:08:13.706Z,98911.45
2023-08-08T12:10:54.421Z,98905.67
2023-08-08T12:13:27.001Z,98906.25
2023-08-08T12:18:35.082Z,98899.00
2023-08-08T12:21:05.923Z,98896.05
2023-08-08T12:23:38.131Z,98896.67
2023-08-08T12:26:10.034Z,98895.70
2023-08-08T12:28:40.873Z,98897.88
2023-08-08T12:31:11.703Z,98900.67
2023-08-08T12:33:43.026Z,98899.91
2023-08-08T12:36:15.274Z,98893.48
2023-08-08T12:38:47.360Z,98888.02
2023-08-08T12:41:18.174Z,98888.41
2023-08-08T12:43:48.931Z,98890.95
2023-08-08T12:46:19.744Z,98890.04
2023-08-08T12:48:50.480Z,98886.20
2023-08-08T12:51:21.344Z,98874.64
2023-08-08T12:53:52.803Z,98878.33
2023-08-08T12:56:23.510Z,98868.92
2023-08-08T12:58:54.283Z,98863.73
2023-08-08T13:01:25.808Z,98861.08
2023-08-08T13:06:34.162Z,98857.36
2023-08-08T13:09:07.042Z,98855.33
2023-08-08T13:11:39.628Z,98852.11
2023-08-08T13:14:10.496Z,98848.23
2023-08-08T13:16:41.942Z,98844.61
2023-08-08T13:19:13.052Z,98841.95
2023-08-08T13:21:43.843Z,98838.36
2023-08-08T13:24:15.358Z,98836.90
2023-08-08T13:26:47.242Z,98839.78
2023-08-08T13:29:18.283Z,98844.23
2023-08-08T13:31:49.103Z,98842.98
2023-08-08T13:34:20.265Z,98843.14
2023-08-08T13:36:51.336Z,98843.05
2023-08-08T13:39:22.176Z,98838.76
2023-08-08T13:41:52.935Z,98840.05
2023-08-08T13:44:23.808Z,98843.91
2023-08-08T13:46:54.877Z,98841.91
2023-08-08T13:49:27.599Z,98838.59
2023-08-08T13:51:58.345Z,98833.84
2023-08-08T13:54:29.188Z,98830.05
2023-08-08T13:57:00.078Z,98833.98
2023-08-08T13:59:31.100Z,98827.80
2023-08-08T14:02:02.336Z,98829.10
2023-08-08T14:04:33.535Z,98827.54
2023-08-08T14:07:04.276Z,98824.65
2023-08-08T14:09:35.161Z,98822.72
2023-08-08T14:12:06.870Z,98822.62
2023-08-08T14:14:37.655Z,98818.90
2023-08-08T14:17:08.593Z,98816.80
2023-08-08T14:19:39.516Z,98819.33
2023-08-08T14:22:11.705Z,98817.06
2023-08-08T14:24:43.094Z,98820.59
2023-08-08T14:27:14.158Z,98818.33
2023-08-08T14:29:45.131Z,98816.67
2023-08-08T14:32:16.279Z,98811.70
2023-08-08T14:34:47.315Z,98810.83
2023-08-08T14:37:18.141Z,98803.89
2023-08-08T14:39:49.380Z,98807.77
2023-08-08T14:42:20.501Z,98806.58
2023-08-08T14:44:51.508Z,98803.33
2023-08-08T14:47:22.454Z,98805.11
2023-08-08T14:49:53.569Z,98800.39
2023-08-08T14:52:27.289Z,98799.71
2023-08-08T14:54:58.283Z,98798.08
2023-08-08T14:57:29.386Z,98803.16
2023-08-08T15:00:02.261Z,98801.77
2023-08-08T15:02:33.328Z,98801.38
2023-08-08T15:05:04.455Z,98797.77
2023-08-08T15:07:35.281Z,98793.59
2023-08-08T15:10:07.206Z,98792.02
2023-08-08T15:12:38.442Z,98788.48
2023-08-08T15:15:12.272Z,98786.20
2023-08-08T15:17:43.678Z,98788.20
2023-08-08T15:20:15.226Z,98792.06
2023-08-08T15:22:46.367Z,98795.71
2023-08-08T15:25:17.384Z,98791.36
2023-08-08T15:27:50.389Z,98788.99
2023-08-08T15:30:21.401Z,98790.66
2023-08-08T15:32:52.211Z,98792.09
2023-08-08T15:35:24.123Z,98794.68
2023-08-08T15:37:55.781Z,98791.25
2023-08-08T15:40:28.176Z,98789.30
2023-08-08T15:42:59.366Z,98790.59
2023-08-08T15:45:30.474Z,98789.76
2023-08-08T15:48:01.556Z,98790.21
2023-08-08T15:50:32.763Z,98796.52
2023-08-08T15:53:03.875Z,98792.40
2023-08-08T15:55:35.678Z,98792.92
2023-08-08T15:58:07.444Z,98794.36
2023-08-08T16:00:38.557Z,98788.41
2023-08-08T16:03:09.557Z,98789.12
2023-08-08T16:05:41.213Z,98793.96
2023-08-08T16:08:12.152Z,98792.40
2023-08-08T16:10:43.060Z,98790.17
2023-08-08T16:13:14.900Z,98793.42
2023-08-08T16:15:46.003Z,98797.30
2023-08-08T16:18:16.894Z,98793.36
2023-08-08T16:20:47.787Z,98799.81
2023-08-08T16:23:18.663Z,98796.08
2023-08-08T16:25:50.795Z,98795.91
2023-08-08T16:28:21.997Z,98800.98
2023-08-08T16:30:53.067Z,98801.66
2023-08-08T16:33:24.186Z,98801.14
2023-08-08T16:35:55.277Z,98802.77
2023-08-08T16:38:26.690Z,98803.73
2023-08-08T16:40:57.737Z,98804.81
2023-08-08T16:43:32.550Z,98807.08
2023-08-08T16:46:03.429Z,98805.81
2023-08-08T16:48:34.557Z,98806.77
2023-08-08T16:51:05.695Z,98813.86
2023-08-08T16:53:37.169Z,98810.94
2023-08-08T16:56:08.194Z,98815.09
2023-08-08T16:58:40.550Z,98816.58
2023-08-08T17:01:13.382Z,98818.81
2023-08-08T17:03:44.538Z,98814.85
2023-08-08T17:06:15.480Z,98818.20
2023-08-08T17:08:47.248Z,98820.09
2023-08-08T17:11:18.458Z,98819.99
2023-08-08T17:13:50.574Z,98822.77
2023-08-08T17:16:21.629Z,98821.63
2023-08-08T17:18:53.795Z,98818.59
2023-08-08T17:21:24.892Z,98817.14
2023-08-08T17:23:56.067Z,98818.17
2023-08-08T17:26:27.418Z,98821.49
2023-08-08T17:28:58.549Z,98826.17
2023-08-08T17:31:29.765Z,98822.81
2023-08-08T17:34:00.759Z,98828.02
2023-08-08T17:36:31.944Z,98828.04
2023-08-08T17:39:03.271Z,98833.12
2023-08-08T17:41:34.364Z,98834.02
2023-08-08T17:44:06.924Z,98833.17
2023-08-08T17:46:38.857Z,98828.63
2023-08-08T17:49:10.145Z,98838.45
2023-08-08T17:51:41.160Z,98842.04
2023-08-08T17:54:12.191Z,98839.94
2023-08-08T17:56:43.351Z,98848.05
2023-08-08T17:59:14.387Z,98848.48
2023-08-08T18:01:45.960Z,98848.55
2023-08-08T18:04:16.959Z,98847.67
2023-08-08T18:06:48.137Z,98853.98
2023-08-08T18:09:19.277Z,98852.16
2023-08-08T18:11:50.411Z,98853.44
2023-08-08T18:14:21.744Z,98859.56
2023-08-08T18:16:52.799Z,98859.70
2023-08-08T18:19:24.296Z,98863.48
2023-08-08T18:21:55.632Z,98864.51
2023-08-08T18:24:27.352Z,98866.84
2023-08-08T18:26:58.549Z,98869.16
2023-08-08T18:29:29.384Z,98868.46
2023-08-08T18:32:02.665Z,98872.21
2023-08-08T18:34:32.355Z,98872.25
2023-08-08T18:37:03.466Z,98870.77
2023-08-08T18:39:34.537Z,98873.85
2023-08-08T18:42:05.543Z,98876.34
2023-08-08T18:44:36.768Z,98881.02
2023-08-08T18:47:08.156Z,98882.52
2023-08-08T18:49:39.261Z,98883.35
2023-08-08T18:52:10.656Z,98885.74
2023-08-08T18:54:41.676Z,98890.11
2023-08-08T18:57:12.638Z,98896.16
2023-08-08T18:59:43.874Z,98898.13
2023-08-08T19:02:14.800Z,98900.86
2023-08-08T19:04:45.657Z,98906.62
2023-08-08T19:07:16.623Z,98906.84
2023-08-08T19:09:47.764Z,98904.97
2023-08-08T19:12:18.757Z,98910.00
2023-08-08T19:14:49.622Z,98906.90
2023-08-08T19:17:20.547Z,98906.97
2023-08-08T19:19:51.428Z,98904.24
2023-08-08T19:22:22.510Z,98910.63
2023-08-08T19:24:54.043Z,98911.52
2023-08-08T19:27:25.335Z,98910.33
2023-08-08T19:29:56.355Z,98909.83
2023-08-08T19:32:27.452Z,98907.23
2023-08-08T19:34:58.524Z,98910.45
2023-08-08T19:37:31.494Z,98907.09
2023-08-08T19:40:02.710Z,98912.98
2023-08-08T19:42:33.656Z,98910.62
2023-08-08T19:45:06.541Z,98910.12
2023-08-08T19:47:38.132Z,98907.89
2023-08-08T19:50:10.571Z,98909.45
2023-08-08T19:52:42.873Z,98907.52
2023-08-08T19:55:13.943Z,98909.05
2023-08-08T19:57:44.742Z,98911.55
2023-08-08T20:00:17.219Z,98910.15
2023-08-08T20:02:48.049Z,98905.13
2023-08-08T20:05:19.246Z,98910.52
2023-08-08T20:07:50.067Z,98916.61
2023-08-08T20:10:21.005Z,98914.28
2023-08-08T20:12:52.060Z,98916.58
2023-08-08T20:15:23.829Z,98916.84
2023-08-08T20:17:54.978Z,98916.45
2023-08-08T20:20:26.005Z,98912.30
2023-08-08T20:22:56.939Z,98916.70
2023-08-08T20:25:27.832Z,98916.02
2023-08-08T20:27:58.829Z,98914.30
2023-08-08T20:30:29.894Z,98911.39
2023-08-08T20:33:01.258Z,98908.77
2023-08-08T20:35:32.940Z,98909.17
2023-08-08T20:38:04.028Z,98910.29
2023-08-08T20:40:34.967Z,98909.52
2023-08-08T20:43:06.185Z,98911.19
2023-08-08T20:45:36.996Z,98910.13
2023-08-08T20:48:08.317Z,98913.19
2023-08-08T20:50:39.090Z,98910.76
2023-08-08T20:53:14.201Z,98907.16
2023-08-08T20:55:45.050Z,98905.20
2023-08-08T20:58:15.952Z,98908.73
2023-08-08T21:00:46.954Z,98912.13
2023-08-08T21:03:17.980Z,98907.77
2023-08-08T21:05:49.516Z,98906.05
2023-08-08T21:08:20.658Z,98907.54
2023-08-08T21:10:51.437Z,98904.38
2023-08-08T21:13:22.229Z,98898.96
2023-08-08T21:15:53.203Z,98899.98
2023-08-08T21:18:24.632Z,98899.92
2023-08-08T21:20:56.120Z,98903.78
2023-08-08T21:23:27.017Z,98898.30
2023-08-08T21:25:58.110Z,98900.08
2023-08-08T21:28:30.487Z,98896.70
2023-08-08T21:31:01.542Z,98896.13
2023-08-08T21:33:32.273Z,98894.46
2023-08-08T21:36:03.178Z,98895.52
2023-08-08T21:38:34.525Z,98897.29
2023-08-08T21:41:05.503Z,98897.33
2023-08-08T21:43:37.532Z,98897.32
2023-08-08T21:46:08.320Z,98896.89
2023-08-08T21:48:39.255Z,98896.92
2023-08-08T21:51:11.636Z,98899.02
2023-08-08T21:53:42.680Z,98899.48
2023-08-08T21:56:13.498Z,98898.29
2023-08-08T21:58:44.940Z,98901.41
2023-08-08T22:01:15.789Z,98894.08
2023-08-08T22:03:47.855Z,98892.47
2023-08-08T22:06:18.915Z,98891.88
2023-08-08T22:08:50.255Z,98888.67
2023-08-08T22:11:21.012Z,98892.80
2023-08-08T22:13:51.766Z,98895.38
2023-08-08T22:16:22.688Z,98898.65
2023-08-08T22:18:53.582Z,98898.86
2023-08-08T22:21:24.334Z,98898.10
2023-08-08T22:23:55.365Z,98899.16
2023-08-08T22:26:26.330Z,98899.66
2023-08-08T22:28:57.021Z,98897.95
2023-08-08T22:31:27.800Z,98899.94
2023-08-08T22:33:59.189Z,98900.02
2023-08-08T22:36:32.154Z,98899.95
2023-08-08T22:39:03.607Z,98900.23
2023-08-08T22:41:34.364Z,98903.41
2023-08-08T22:44:05.482Z,98903.51
2023-08-08T22:46:38.478Z,98903.29
2023-08-08T22:49:10.048Z,98900.09
2023-08-08T22:51:40.757Z,98901.15
2023-08-08T22:54:11.547Z,98899.95
2023-08-08T22:56:42.320Z,98899.95
2023-08-08T22:59:13.088Z,98900.39
2023-08-08T23:01:44.065Z,98899.73
2023-08-08T23:04:14.856Z,98897.51
2023-08-08T23:06:45.708Z,98901.23
2023-08-08T23:09:16.424Z,98899.66
2023-08-08T23:11:47.058Z,98891.86
2023-08-08T23:14:17.706Z,98892.91
2023-08-08T23:16:48.918Z,98892.45
2023-08-08T23:19:19.910Z,98889.09
2023-08-08T23:21:50.605Z,98887.73
2023-08-08T23:24:21.289Z,98890.67
2023-08-08T23:26:52.337Z,98888.99
2023-08-08T23:29:23.914Z,98891.96
2023-08-08T23:31:54.936Z,98892.42
2023-08-08T23:34:26.088Z,98892.60
2023-08-08T23:36:57.211Z,98888.77
2023-08-08T23:39:28.718Z,98891.33
2023-08-08T23:41:59.627Z,98891.42
2023-08-08T23:44:30.667Z,98888.58
2023-08-08T23:47:01.747Z,98893.09
2023-08-08T23:49:32.668Z,98890.34
2023-08-08T23:52:03.431Z,98898.95
2023-08-08T23:54:34.374Z,98896.72
2023-08-08T23:57:05.814Z,98898.95
2023-08-08T23:59:36.860Z,98898.19
